Broadway, Ohio
Current Conditions -  °F | °C
As of 12:13 AM on Saturday 25 Oct 2014 (Local Time) from KMRT Reporting Station
Broken Clouds Broken Clouds  
Wind Chill: 44°   Ceiling: 3700
Heat Index: 44°   Visibility: 10mi
Dew Point: 38°   Wind: 0mph
Humidity: 78%   Direction: NA
Pressure: 30.02"   Gusts: NA
Location:  40.34°N, 83.41°W
Report Text: KMRT 250413Z AUTO 00000KT 10SM BKN037 07/03 A3002 RMK AO2 T00660031
Loading
Personal Weather Stations






























Interactive Weather Map
Tropical Storm Tracking
New forecast layout! Learn more

10-Day Weather Forecast

Advertisements
Track Severe Weather on mobile